Time;durP1;ratioP1;P1;durP2;ratioP2;P2;SDS_P1;SDS_P2;PMS_P1;PMS_P2;Temp;Humidity;BMP_temperature;BMP_pressure;BME280_temperature;BME280_humidity;BME280_pressure;Samples;Min_cycle;Max_cycle;Signal;HPM_P1;HPM_P2
2021/12/01 00:02:03;;;;;;;26.17;9.13;;;9.00;99.90;;;;;;5052227;28;20033;-80
2021/12/01 00:04:29;;;;;;;25.98;9.20;;;9.00;99.90;;;;;;5053075;28;20663;-80
2021/12/01 00:06:54;;;;;;;26.00;10.13;;;9.00;99.90;;;;;;5055155;28;20082;-80
2021/12/01 00:09:20;;;;;;;25.77;8.45;;;9.00;99.90;;;;;;5056070;28;20379;-80
2021/12/01 00:11:46;;;;;;;26.07;9.73;;;9.40;99.90;;;;;;5056408;28;20071;-80
2021/12/01 00:14:12;;;;;;;27.10;11.10;;;9.10;99.90;;;;;;5073422;28;20275;-80
2021/12/01 00:16:37;;;;;;;28.38;10.88;;;9.20;99.90;;;;;;5039441;28;20044;-80
2021/12/01 00:19:03;;;;;;;26.43;10.37;;;9.20;99.90;;;;;;5072589;28;20037;-80
2021/12/01 00:21:29;;;;;;;28.00;10.23;;;9.30;99.90;;;;;;5056588;28;20279;-80
2021/12/01 00:23:54;;;;;;;29.17;11.38;;;9.30;99.90;;;;;;5056571;28;20098;-81
2021/12/01 00:26:20;;;;;;;24.40;10.23;;;9.50;99.90;;;;;;5072683;28;20036;-80
2021/12/01 00:28:46;;;;;;;27.58;12.25;;;9.50;99.90;;;;;;5055826;28;20076;-80
2021/12/01 00:31:12;;;;;;;30.30;13.23;;;9.40;99.90;;;;;;5072118;28;20037;-80
2021/12/01 00:33:41;;;;;;;27.27;13.20;;;9.50;99.90;;;;;;5055998;28;20512;-80
2021/12/01 00:36:08;;;;;;;27.25;13.10;;;9.60;99.90;;;;;;5072242;28;20057;-80
2021/12/01 00:38:35;;;;;;;30.85;13.70;;;9.60;99.90;;;;;;5072524;28;20392;-80
2021/12/01 00:41:03;;;;;;;29.35;14.27;;;9.70;99.90;;;;;;5072016;28;20048;-80
2021/12/01 00:43:29;;;;;;;31.10;15.75;;;9.70;99.90;;;;;;5072650;28;20068;-80
2021/12/01 00:46:00;;;;;;;35.83;16.73;;;9.70;99.90;;;;;;5072150;28;20047;-80
2021/12/01 00:48:26;;;;;;;32.38;14.85;;;9.60;99.90;;;;;;5054320;28;20115;-80
2021/12/01 00:50:53;;;;;;;;;;;9.70;99.90;;;;;;5072625;28;20040;-80
2021/12/01 00:53:19;;;;;;;28.75;15.40;;;9.70;99.90;;;;;;5038366;28;19934;-80
2021/12/01 00:55:45;;;;;;;28.98;14.23;;;9.80;99.90;;;;;;5055760;28;20131;-80
2021/12/01 00:58:12;;;;;;;30.88;13.40;;;9.80;99.90;;;;;;5055093;28;20116;-80
2021/12/01 01:00:39;;;;;;;31.15;14.57;;;9.70;99.90;;;;;;5055652;28;20040;-80
2021/12/01 01:03:05;;;;;;;27.77;13.85;;;9.80;99.90;;;;;;5054694;28;20048;-80
2021/12/01 01:05:31;;;;;;;28.95;14.77;;;9.70;99.90;;;;;;5055346;28;20045;-80
2021/12/01 01:07:57;;;;;;;25.60;14.15;;;9.70;99.90;;;;;;5071821;28;20047;-80
2021/12/01 01:18:44;;;;;;;26.92;12.95;;;9.70;99.90;;;;;;5090226;28;20054;-80
2021/12/01 01:21:10;;;;;;;28.15;12.65;;;9.90;99.90;;;;;;5071420;28;20048;-80
2021/12/01 01:23:36;;;;;;;;;;;9.80;99.90;;;;;;5055525;28;20485;-80
2021/12/01 01:26:04;;;;;;;22.65;11.82;;;9.70;99.90;;;;;;5071319;28;20399;-80
2021/12/01 01:28:30;;;;;;;26.08;12.63;;;9.80;99.90;;;;;;5068968;28;20028;-80
2021/12/01 01:30:57;;;;;;;28.35;12.82;;;9.80;99.90;;;;;;5054723;28;20056;-80
2021/12/01 01:33:23;;;;;;;25.20;11.30;;;9.70;99.90;;;;;;5054926;28;20045;-80
2021/12/01 01:35:49;;;;;;;18.80;10.85;;;9.70;99.90;;;;;;5037876;28;20055;-80
2021/12/01 01:38:15;;;;;;;19.13;10.20;;;9.90;99.90;;;;;;5054344;28;20127;-80
2021/12/01 01:40:41;;;;;;;19.08;9.52;;;10.00;99.90;;;;;;5054620;28;20132;-80
2021/12/01 01:43:08;;;;;;;21.67;10.80;;;10.20;99.90;;;;;;5070830;28;20044;-80
2021/12/01 01:45:34;;;;;;;18.08;8.48;;;10.00;99.90;;;;;;5054273;28;20110;-80
2021/12/01 01:48:04;;;;;;;17.08;9.30;;;10.00;99.90;;;;;;5037924;28;20040;-80
2021/12/01 01:50:35;;;;;;;20.95;9.00;;;10.10;99.90;;;;;;5071048;28;20040;-80
2021/12/01 01:53:26;;;;;;;17.80;7.88;;;10.30;99.90;;;;;;5070726;28;20447;-80
2021/12/01 01:55:55;;;;;;;16.45;6.57;;;10.20;99.90;;;;;;5038359;28;20507;-80
2021/12/01 01:58:22;;;;;;;13.05;6.60;;;9.90;99.90;;;;;;5037348;28;20072;-80
2021/12/01 02:00:52;;;;;;;15.82;6.47;;;9.90;99.90;;;;;;5038146;28;20457;-80
2021/12/01 02:03:21;;;;;;;12.20;5.95;;;10.00;99.90;;;;;;5070736;28;20131;-80
2021/12/01 02:05:47;;;;;;;13.23;5.78;;;10.10;99.90;;;;;;5070662;28;20044;-80
2021/12/01 02:08:32;;;;;;;15.00;6.03;;;10.00;99.90;;;;;;5036954;28;20050;-80
2021/12/01 02:10:59;;;;;;;13.15;5.47;;;10.00;99.90;;;;;;5039854;28;20032;-79
2021/12/01 02:13:25;;;;;;;11.20;4.70;;;10.00;99.90;;;;;;5036997;28;20037;-79
2021/12/01 02:15:52;;;;;;;7.97;3.17;;;9.90;99.90;;;;;;5070226;28;20100;-80
2021/12/01 02:18:19;;;;;;;7.90;3.50;;;10.00;99.90;;;;;;5053777;28;20037;-80
2021/12/01 02:21:08;;;;;;;9.02;3.28;;;10.00;99.90;;;;;;5037536;28;20130;-80
2021/12/01 02:23:37;;;;;;;8.02;3.85;;;10.00;99.90;;;;;;5053642;28;20403;-79
2021/12/01 02:26:04;;;;;;;8.75;2.75;;;10.00;99.90;;;;;;5053488;28;20111;-80
2021/12/01 02:28:31;;;;;;;10.15;2.60;;;10.00;99.90;;;;;;5069292;28;20044;-80
2021/12/01 02:30:57;;;;;;;;;;;9.90;99.90;;;;;;5054265;28;20043;-80
2021/12/01 02:33:23;;;;;;;4.43;1.70;;;9.90;99.90;;;;;;5069831;28;19978;-80
2021/12/01 02:35:50;;;;;;;5.18;1.92;;;9.80;99.90;;;;;;5070275;28;20040;-79
2021/12/01 02:38:17;;;;;;;4.03;1.60;;;9.80;99.90;;;;;;5053252;28;20065;-80
2021/12/01 02:40:44;;;;;;;4.90;1.35;;;9.80;99.90;;;;;;5069730;28;20119;-80
2021/12/01 02:43:10;;;;;;;5.68;1.60;;;9.90;99.90;;;;;;5069896;28;20747;-79
2021/12/01 02:45:36;;;;;;;3.67;1.48;;;9.90;99.90;;;;;;5069933;28;20032;-79
2021/12/01 02:48:02;;;;;;;3.28;1.58;;;9.80;99.90;;;;;;5053530;28;20048;-79
2021/12/01 02:50:28;;;;;;;4.18;1.42;;;9.80;99.90;;;;;;5053011;28;20063;-80
2021/12/01 02:52:54;;;;;;;4.95;1.30;;;9.90;99.90;;;;;;5069864;28;20048;-79
2021/12/01 02:55:21;;;;;;;2.85;1.02;;;9.90;99.90;;;;;;5069625;28;20059;-80
2021/12/01 02:57:50;;;;;;;3.92;1.27;;;10.00;99.90;;;;;;5053282;28;20044;-80
2021/12/01 03:00:18;;;;;;;3.97;1.30;;;10.10;99.90;;;;;;5067593;28;20053;-80
2021/12/01 03:02:45;;;;;;;2.95;1.20;;;10.20;99.90;;;;;;5069861;28;20040;-79
2021/12/01 03:05:11;;;;;;;4.97;1.13;;;10.10;99.90;;;;;;5035932;28;20075;-80
2021/12/01 03:07:38;;;;;;;5.35;1.50;;;10.10;99.90;;;;;;5052786;28;20054;-79
2021/12/01 03:10:05;;;;;;;2.92;1.30;;;10.10;99.90;;;;;;5053116;28;20488;-79
2021/12/01 03:12:34;;;;;;;5.57;1.77;;;10.10;99.90;;;;;;5069849;28;20063;-80
2021/12/01 03:14:59;;;;;;;7.38;1.58;;;10.10;99.90;;;;;;5053470;28;20082;-80
2021/12/01 03:17:30;;;;;;;3.92;1.50;;;10.00;99.90;;;;;;5052438;28;20037;-79
2021/12/01 03:19:56;;;;;;;8.60;1.80;;;10.00;99.90;;;;;;5069556;28;20047;-80
2021/12/01 03:22:23;;;;;;;;;;;10.00;99.90;;;;;;5069317;28;20029;-79
2021/12/01 03:24:49;;;;;;;4.13;1.50;;;10.00;99.90;;;;;;5050438;28;19974;-79
2021/12/01 03:27:15;;;;;;;4.82;1.50;;;10.10;99.90;;;;;;5051628;28;20586;-79
2021/12/01 03:29:41;;;;;;;4.30;1.77;;;10.10;99.90;;;;;;5068309;28;20571;-80
2021/12/01 03:32:07;;;;;;;9.07;1.70;;;10.10;99.90;;;;;;5051160;28;20040;-80
2021/12/01 03:34:36;;;;;;;;;;;10.10;99.90;;;;;;5051261;28;20380;-80
2021/12/01 03:37:02;;;;;;;6.78;1.63;;;10.20;99.90;;;;;;5051136;28;19916;-79
2021/12/01 03:39:28;;;;;;;10.07;1.75;;;10.20;99.90;;;;;;5034832;28;20036;-80
2021/12/01 03:41:54;;;;;;;8.05;1.75;;;10.10;99.90;;;;;;5056483;28;20132;-80
2021/12/01 03:44:19;;;;;;;10.80;1.67;;;10.10;99.90;;;;;;5056134;28;20441;-80
2021/12/01 03:46:45;;;;;;;5.20;1.38;;;10.00;99.90;;;;;;5040009;28;20037;-79
2021/12/01 03:49:11;;;;;;;8.63;1.60;;;10.00;99.90;;;;;;5056436;28;20040;-80
2021/12/01 03:51:36;;;;;;;6.53;1.17;;;9.90;99.90;;;;;;5073104;28;20285;-79
2021/12/01 03:54:03;;;;;;;8.73;1.52;;;10.00;99.90;;;;;;5039880;28;20124;-80
2021/12/01 03:56:30;;;;;;;;;;;10.00;99.90;;;;;;5039623;28;20132;-80
2021/12/01 03:58:56;;;;;;;12.97;2.40;;;9.90;99.90;;;;;;5039689;28;19924;-80
2021/12/01 04:01:22;;;;;;;14.48;2.10;;;10.00;99.90;;;;;;5072845;28;20473;-80
2021/12/01 04:03:48;;;;;;;12.32;2.10;;;10.00;99.90;;;;;;5073092;28;20048;-80
2021/12/01 04:06:14;;;;;;;14.10;2.10;;;10.00;99.90;;;;;;5056342;28;20082;-80
2021/12/01 04:08:40;;;;;;;14.77;2.40;;;10.00;99.90;;;;;;5056135;28;20045;-80
2021/12/01 04:11:06;;;;;;;14.43;2.40;;;10.00;99.90;;;;;;5056219;28;20047;-80
2021/12/01 04:13:32;;;;;;;5.82;1.88;;;10.00;99.90;;;;;;5072700;28;20062;-79
2021/12/01 04:15:57;;;;;;;14.10;2.60;;;10.10;99.90;;;;;;5056583;28;20503;-80
2021/12/01 04:18:23;;;;;;;14.00;2.67;;;10.00;99.90;;;;;;5056069;28;20037;-80
2021/12/01 04:20:49;;;;;;;9.75;2.17;;;9.90;99.90;;;;;;5072447;28;20074;-80
2021/12/01 04:23:15;;;;;;;12.73;2.13;;;10.00;99.90;;;;;;5072683;28;20036;-79
2021/12/01 04:25:42;;;;;;;13.77;2.13;;;9.90;99.90;;;;;;5072478;28;20036;-79
2021/12/01 04:28:08;;;;;;;12.77;2.63;;;9.80;99.90;;;;;;5072804;28;20103;-80
2021/12/01 04:30:33;;;;;;;8.82;1.88;;;9.90;99.90;;;;;;5055376;28;20094;-80
2021/12/01 04:32:59;;;;;;;5.45;1.17;;;9.90;99.90;;;;;;5055782;28;20458;-80
2021/12/01 04:35:27;;;;;;;11.27;1.65;;;10.00;99.90;;;;;;5055405;28;20040;-80
2021/12/01 04:37:53;;;;;;;5.93;1.70;;;10.00;99.90;;;;;;5055808;28;20130;-79
2021/12/01 04:40:19;;;;;;;6.38;1.63;;;10.10;99.90;;;;;;5071844;28;20037;-79
2021/12/01 04:42:45;;;;;;;4.07;1.48;;;10.10;99.90;;;;;;5055720;28;20093;-80
2021/12/01 04:45:17;;;;;;;4.47;1.60;;;10.60;99.90;;;;;;5072252;28;20516;-80
2021/12/01 04:47:54;;;;;;;5.55;2.10;;;10.00;99.90;;;;;;5072449;28;20071;-80
2021/12/01 04:50:21;;;;;;;;;;;10.10;99.90;;;;;;5072153;28;20033;-80
2021/12/01 04:52:47;;;;;;;3.00;1.42;;;10.00;99.90;;;;;;5071182;28;19927;-80
2021/12/01 04:55:13;;;;;;;5.03;1.65;;;10.00;99.90;;;;;;5055576;28;20047;-81
2021/12/01 04:57:45;;;;;;;5.72;1.85;;;10.10;99.90;;;;;;5055105;28;20127;-80
2021/12/01 05:00:19;;;;;;;3.40;1.70;;;10.00;99.90;;;;;;5053150;28;20036;-80
2021/12/01 05:02:44;;;;;;;5.38;2.08;;;10.10;99.90;;;;;;5055232;28;20051;-80
2021/12/01 05:05:10;;;;;;;4.22;2.03;;;10.00;99.90;;;;;;5055452;28;20404;-80
2021/12/01 05:07:36;;;;;;;2.75;1.60;;;10.10;99.90;;;;;;5055036;28;20506;-80
2021/12/01 05:10:03;;;;;;;4.55;1.52;;;10.10;99.90;;;;;;5071960;28;20040;-80
2021/12/01 05:12:29;;;;;;;4.22;1.83;;;10.20;99.90;;;;;;5055040;28;20036;-80
2021/12/01 05:14:55;;;;;;;2.03;1.35;;;10.10;99.90;;;;;;5038633;28;20036;-80
2021/12/01 05:17:21;;;;;;;1.48;1.05;;;10.10;99.90;;;;;;5071283;28;20566;-81
2021/12/01 05:19:47;;;;;;;3.40;1.33;;;10.00;99.90;;;;;;5038952;28;20040;-81
2021/12/01 05:22:14;;;;;;;1.73;1.23;;;10.00;99.90;;;;;;5072145;28;20068;-81
2021/12/01 05:24:40;;;;;;;;;;;9.90;99.90;;;;;;5071894;28;20036;-80
2021/12/01 05:27:06;;;;;;;2.22;0.80;;;10.00;99.90;;;;;;5072301;28;19966;-79
2021/12/01 05:29:31;;;;;;;2.05;0.63;;;10.00;99.90;;;;;;5071890;28;20097;-82
2021/12/01 05:31:57;;;;;;;0.70;0.50;;;10.00;99.90;;;;;;5072034;28;20036;-80
2021/12/01 05:34:24;;;;;;;1.20;0.70;;;10.10;99.90;;;;;;5071348;28;20083;-82
2021/12/01 05:36:51;;;;;;;1.13;0.60;;;9.80;99.90;;;;;;5072326;28;20178;-82
2021/12/01 05:39:17;;;;;;;0.90;0.60;;;10.00;99.90;;;;;;5072509;28;20032;-82
2021/12/01 05:41:43;;;;;;;1.92;0.80;;;10.00;99.90;;;;;;5071646;28;20044;-82
2021/12/01 05:44:09;;;;;;;1.85;0.80;;;9.90;99.90;;;;;;5055462;28;20037;-82
2021/12/01 05:46:35;;;;;;;1.77;1.08;;;9.90;99.90;;;;;;5054900;28;20527;-81
2021/12/01 05:49:02;;;;;;;2.28;1.20;;;9.80;99.90;;;;;;5055598;28;20090;-81
2021/12/01 05:51:28;;;;;;;1.90;1.35;;;9.60;99.90;;;;;;5069150;28;20036;-81
2021/12/01 05:53:54;;;;;;;1.77;1.20;;;9.80;99.90;;;;;;5055081;28;20063;-81
2021/12/01 05:56:20;;;;;;;2.25;1.27;;;9.70;99.90;;;;;;5054936;28;20040;-80
2021/12/01 05:58:46;;;;;;;2.13;1.13;;;9.60;99.90;;;;;;5037305;28;20075;-82
2021/12/01 06:01:12;;;;;;;2.85;1.42;;;9.70;99.90;;;;;;5071843;28;20072;-81
2021/12/01 06:03:39;;;;;;;3.53;1.70;;;9.70;99.90;;;;;;5053284;28;20034;-81
2021/12/01 06:06:05;;;;;;;2.42;1.70;;;9.80;99.90;;;;;;5071212;28;21643;-81
2021/12/01 06:08:30;;;;;;;2.87;1.40;;;9.60;99.90;;;;;;5037185;28;20039;-81
2021/12/01 06:10:56;;;;;;;2.00;1.47;;;9.70;99.90;;;;;;5054170;28;20283;-81
2021/12/01 06:13:24;;;;;;;2.42;1.30;;;9.60;99.90;;;;;;5054605;28;20060;-81
2021/12/01 06:15:50;;;;;;;2.60;1.65;;;9.70;99.90;;;;;;5054732;28;20123;-80
2021/12/01 06:18:16;;;;;;;;;;;9.60;99.90;;;;;;5055279;28;20048;-81
2021/12/01 06:20:42;;;;;;;2.83;1.63;;;9.70;99.90;;;;;;5070246;28;19923;-81
2021/12/01 06:23:08;;;;;;;2.92;1.50;;;9.70;99.90;;;;;;5038049;28;20142;-81
2021/12/01 06:25:34;;;;;;;2.22;1.35;;;9.70;99.90;;;;;;5070212;28;20040;-81
2021/12/01 06:28:00;;;;;;;1.92;1.45;;;9.70;99.90;;;;;;5053719;28;20033;-81
2021/12/01 06:30:31;;;;;;;2.55;1.50;;;9.70;99.90;;;;;;5053148;28;20515;-80
2021/12/01 06:32:56;;;;;;;2.90;1.50;;;9.60;99.90;;;;;;5067789;28;20036;-81
2021/12/01 06:35:22;;;;;;;1.35;1.13;;;9.80;99.90;;;;;;5053825;28;20068;-81
2021/12/01 06:37:50;;;;;;;2.38;1.45;;;9.60;99.90;;;;;;5070153;28;20484;-81
2021/12/01 06:40:16;;;;;;;2.85;1.35;;;9.50;99.90;;;;;;5037587;28;20041;-81
2021/12/01 06:42:42;;;;;;;1.90;1.33;;;9.50;99.90;;;;;;5069756;28;20032;-81
2021/12/01 06:45:09;;;;;;;;;;;9.50;99.90;;;;;;5054376;28;20036;-81
2021/12/01 06:47:35;;;;;;;1.63;1.15;;;9.50;99.90;;;;;;5036646;28;19955;-81
2021/12/01 06:50:02;;;;;;;1.88;1.33;;;9.50;99.90;;;;;;5053837;28;20076;-81
2021/12/01 06:52:28;;;;;;;2.80;1.63;;;9.60;99.90;;;;;;5036720;28;20054;-80
2021/12/01 06:54:55;;;;;;;2.20;1.45;;;9.40;99.90;;;;;;5036828;28;20131;-80
2021/12/01 06:57:21;;;;;;;2.05;1.30;;;9.50;99.90;;;;;;5070516;28;20036;-80
2021/12/01 06:59:47;;;;;;;2.53;2.03;;;9.40;99.90;;;;;;5053662;28;21009;-80
2021/12/01 07:02:12;;;;;;;2.37;1.63;;;9.40;99.90;;;;;;5036850;28;20047;-80
2021/12/01 07:04:38;;;;;;;2.30;1.73;;;9.40;99.90;;;;;;5036716;28;20809;-80
2021/12/01 07:07:04;;;;;;;2.03;1.50;;;9.40;99.90;;;;;;5053478;28;20107;-80
2021/12/01 07:09:30;;;;;;;1.88;1.40;;;9.30;99.90;;;;;;5069943;28;20032;-80
2021/12/01 07:11:56;;;;;;;2.70;1.33;;;9.40;99.90;;;;;;5053175;28;20481;-81
2021/12/01 07:14:22;;;;;;;2.40;1.50;;;9.50;99.90;;;;;;5052970;28;20051;-80
2021/12/01 07:16:48;;;;;;;2.83;1.42;;;9.30;99.90;;;;;;5052837;28;20028;-81
2021/12/01 07:19:14;;;;;;;2.35;1.52;;;9.30;99.90;;;;;;5053829;28;20442;-81
2021/12/01 07:21:40;;;;;;;3.45;1.50;;;9.50;99.90;;;;;;5053299;28;20036;-80
2021/12/01 07:24:06;;;;;;;;;;;9.40;99.90;;;;;;5071109;28;20037;-81
2021/12/01 07:26:32;;;;;;;3.72;2.30;;;9.40;99.90;;;;;;5053421;28;20384;-81
2021/12/01 07:28:58;;;;;;;2.95;2.30;;;9.30;99.90;;;;;;5052826;28;20093;-81
2021/12/01 07:31:24;;;;;;;3.38;2.15;;;9.30;99.90;;;;;;5053044;28;20040;-81
2021/12/01 07:33:50;;;;;;;4.07;2.50;;;9.30;99.90;;;;;;5052864;28;20900;-81
2021/12/01 07:36:17;;;;;;;3.13;2.38;;;9.20;99.90;;;;;;5069972;28;20127;-76
2021/12/01 07:38:43;;;;;;;3.45;2.08;;;9.20;99.90;;;;;;5070105;28;20488;-78
2021/12/01 07:41:09;;;;;;;3.33;2.22;;;9.20;99.90;;;;;;5084262;28;20047;-79
2021/12/01 07:43:34;;;;;;;2.45;1.60;;;9.20;99.90;;;;;;5067539;28;20123;-78
2021/12/01 07:46:03;;;;;;;3.80;2.53;;;9.40;99.90;;;;;;5069887;28;20088;-78
2021/12/01 07:48:31;;;;;;;8.13;2.83;;;9.30;99.90;;;;;;5070325;28;20039;-79
2021/12/01 07:50:57;;;;;;;4.75;2.45;;;9.30;99.90;;;;;;5069998;28;20032;-78
2021/12/01 07:53:23;;;;;;;7.30;3.10;;;9.50;99.90;;;;;;5053257;28;20049;-78
2021/12/01 07:55:49;;;;;;;4.70;2.88;;;9.50;99.90;;;;;;5053190;28;20345;-78
2021/12/01 07:58:14;;;;;;;5.05;2.70;;;9.50;99.90;;;;;;5070142;28;20041;-79
2021/12/01 08:00:40;;;;;;;3.45;2.13;;;9.40;99.90;;;;;;5069957;28;20033;-78
2021/12/01 08:03:06;;;;;;;5.28;2.92;;;9.60;99.90;;;;;;5070286;28;20036;-77
2021/12/01 08:05:32;;;;;;;12.70;3.40;;;9.50;99.90;;;;;;5069732;28;20032;-78
2021/12/01 08:07:58;;;;;;;5.25;2.95;;;9.60;99.90;;;;;;5070212;28;20437;-78
2021/12/01 08:10:24;;;;;;;4.47;2.60;;;9.60;99.90;;;;;;5070122;28;20075;-78
2021/12/01 08:12:51;;;;;;;3.17;2.33;;;9.70;99.90;;;;;;5069699;28;20040;-78
2021/12/01 08:15:16;;;;;;;4.85;2.80;;;9.60;99.90;;;;;;5036598;28;20041;-78
2021/12/01 08:17:42;;;;;;;4.55;2.53;;;9.70;99.90;;;;;;5068942;28;20181;-78
2021/12/01 08:20:08;;;;;;;5.22;2.72;;;9.70;99.90;;;;;;5052863;28;20097;-78
2021/12/01 08:22:34;;;;;;;4.57;2.75;;;9.70;99.90;;;;;;5069631;28;20037;-78
2021/12/01 08:25:00;;;;;;;5.90;3.20;;;9.70;99.90;;;;;;5069517;28;20037;-77
2021/12/01 08:27:27;;;;;;;5.65;3.25;;;9.60;99.90;;;;;;5071221;28;20396;-78
2021/12/01 08:29:53;;;;;;;5.95;3.13;;;9.70;99.90;;;;;;5056021;28;20035;-78
2021/12/01 08:32:19;;;;;;;6.22;3.70;;;9.60;99.90;;;;;;5073505;28;20472;-77
2021/12/01 08:34:49;;;;;;;5.68;3.08;;;9.50;99.90;;;;;;5055804;28;20041;-78
2021/12/01 08:37:18;;;;;;;5.88;2.47;;;9.60;99.90;;;;;;5053726;28;20040;-78
2021/12/01 08:39:44;;;;;;;6.90;2.15;;;9.50;99.90;;;;;;5070163;28;20118;-78
2021/12/01 08:42:12;;;;;;;;;;;9.40;99.90;;;;;;5073227;28;20044;-78
2021/12/01 08:44:44;;;;;;;5.95;1.70;;;9.40;99.90;;;;;;5072776;28;19960;-78
2021/12/01 08:47:14;;;;;;;4.15;1.77;;;9.40;99.90;;;;;;5056132;28;20115;-78
2021/12/01 08:49:40;;;;;;;9.98;1.90;;;9.40;99.90;;;;;;5072367;28;20098;-78
2021/12/01 08:52:07;;;;;;;7.65;1.73;;;9.40;99.90;;;;;;5072718;28;20047;-77
2021/12/01 08:54:32;;;;;;;9.00;1.60;;;9.40;99.90;;;;;;5072494;28;20048;-78
2021/12/01 08:56:58;;;;;;;4.05;1.38;;;9.30;99.90;;;;;;5055811;28;20537;-78
2021/12/01 08:59:24;;;;;;;6.82;1.17;;;9.40;99.90;;;;;;5072880;28;20039;-78
2021/12/01 09:01:50;;;;;;;6.40;1.30;;;9.40;99.90;;;;;;5072479;28;20037;-77
2021/12/01 09:04:16;;;;;;;5.47;1.50;;;9.30;99.90;;;;;;5072624;28;20133;-78
2021/12/01 09:06:41;;;;;;;6.65;1.50;;;9.30;99.90;;;;;;5072062;28;20068;-80
2021/12/01 09:09:07;;;;;;;6.18;1.15;;;9.30;99.90;;;;;;5072265;28;20032;-79
2021/12/01 09:11:33;;;;;;;6.93;1.13;;;9.30;99.90;;;;;;5039135;28;20040;-78
2021/12/01 09:13:59;;;;;;;7.13;1.30;;;9.30;99.90;;;;;;5072373;28;20037;-77
2021/12/01 09:16:25;;;;;;;4.50;1.23;;;9.30;99.90;;;;;;5055606;28;20040;-77
2021/12/01 09:18:51;;;;;;;5.63;1.00;;;9.30;99.90;;;;;;5072287;28;20051;-77
2021/12/01 09:21:18;;;;;;;7.22;1.58;;;9.30;99.90;;;;;;5072567;28;20040;-77
2021/12/01 09:23:45;;;;;;;12.45;1.42;;;9.20;99.90;;;;;;5055448;28;20494;-77
2021/12/01 09:26:10;;;;;;;5.05;1.35;;;9.30;99.90;;;;;;5072189;28;20043;-77
2021/12/01 09:28:36;;;;;;;7.57;1.40;;;9.30;99.90;;;;;;5055772;28;20044;-78
2021/12/01 09:31:02;;;;;;;3.90;1.10;;;9.20;99.90;;;;;;5071819;28;20032;-77
2021/12/01 09:33:29;;;;;;;4.38;0.80;;;9.10;99.90;;;;;;5072199;28;20373;-77
2021/12/01 09:35:56;;;;;;;9.32;1.10;;;9.10;99.90;;;;;;5055276;28;20040;-77
2021/12/01 09:38:21;;;;;;;8.57;1.58;;;9.10;99.90;;;;;;5038803;28;20119;-77
2021/12/01 09:40:53;;;;;;;9.52;1.35;;;9.10;99.90;;;;;;5071898;28;20445;-77
2021/12/01 09:43:22;;;;;;;8.55;1.38;;;9.30;99.90;;;;;;5065264;28;20036;-78
2021/12/01 09:45:49;;;;;;;5.88;0.88;;;9.00;99.90;;;;;;5054441;28;20127;-77
2021/12/01 09:48:15;;;;;;;9.63;1.17;;;9.10;99.90;;;;;;5071566;28;20036;-77
2021/12/01 09:50:41;;;;;;;6.50;1.00;;;9.00;99.90;;;;;;5071836;28;20033;-77
2021/12/01 09:53:07;;;;;;;9.00;1.20;;;9.00;99.90;;;;;;5071065;28;20046;-77
2021/12/01 09:55:33;;;;;;;8.90;0.90;;;9.00;99.90;;;;;;5071493;28;20056;-77
2021/12/01 09:58:08;;;;;;;6.95;1.15;;;9.20;99.90;;;;;;5071221;28;20036;-77
2021/12/01 10:00:36;;;;;;;6.82;1.10;;;9.10;99.90;;;;;;5071985;28;20518;-77
2021/12/01 10:03:03;;;;;;;6.82;1.42;;;9.20;99.90;;;;;;5066474;28;20044;-77
2021/12/01 10:05:51;;;;;;;12.05;1.60;;;9.20;99.90;;;;;;5071657;28;20035;-77
2021/12/01 10:08:23;;;;;;;7.28;1.10;;;9.30;99.90;;;;;;5071921;28;20059;-76
2021/12/01 10:10:50;;;;;;;14.23;1.98;;;9.40;99.90;;;;;;5068573;28;20044;-77
2021/12/01 10:13:24;;;;;;;9.20;1.77;;;9.50;99.90;;;;;;5071561;28;20484;-77
2021/12/01 10:15:50;;;;;;;9.13;1.92;;;9.70;99.90;;;;;;5071181;28;20076;-76
2021/12/01 10:18:17;;;;;;;13.13;1.95;;;9.70;99.90;;;;;;5071033;28;20072;-77
2021/12/01 10:20:43;;;;;;;13.25;2.45;;;9.70;99.90;;;;;;5054608;28;20101;-77
2021/12/01 10:23:16;;;;;;;11.15;1.80;;;9.60;99.90;;;;;;5054086;28;20048;-76
2021/12/01 10:25:43;;;;;;;16.02;1.65;;;9.50;99.90;;;;;;5071091;28;20086;-77
2021/12/01 10:28:13;;;;;;;10.93;1.73;;;9.50;99.90;;;;;;5070840;28;20477;-77
2021/12/01 10:30:43;;;;;;;9.85;1.70;;;9.30;99.90;;;;;;5070958;28;20032;-78
2021/12/01 10:33:15;;;;;;;11.15;1.58;;;9.20;99.90;;;;;;5070370;28;20036;-78
2021/12/01 10:35:42;;;;;;;14.68;1.63;;;9.30;99.90;;;;;;5068582;28;20094;-78
2021/12/01 10:38:08;;;;;;;;;;;9.20;99.90;;;;;;5070828;28;20128;-77
2021/12/01 10:40:37;;;;;;;13.88;2.05;;;9.10;99.90;;;;;;5054188;28;19969;-77
2021/12/01 10:43:07;;;;;;;14.77;1.88;;;9.10;99.90;;;;;;5054289;28;20086;-77
2021/12/01 10:45:38;;;;;;;7.00;1.85;;;9.10;99.90;;;;;;5070803;28;20041;-77
2021/12/01 10:48:06;;;;;;;6.45;1.60;;;9.10;99.90;;;;;;5070270;28;20044;-77
2021/12/01 10:50:34;;;;;;;7.90;2.42;;;9.10;99.90;;;;;;5070031;28;20416;-77
2021/12/01 10:53:09;;;;;;;10.70;1.92;;;9.10;99.90;;;;;;5070047;28;20118;-77
2021/12/01 10:55:42;;;;;;;6.95;1.50;;;9.10;99.90;;;;;;5069078;28;20044;-77
2021/12/01 10:58:09;;;;;;;8.60;1.73;;;9.20;99.90;;;;;;5070151;28;20052;-77
2021/12/01 11:00:42;;;;;;;7.95;1.38;;;9.30;99.90;;;;;;5070315;28;20043;-77
2021/12/01 11:03:19;;;;;;;9.88;1.42;;;9.40;99.90;;;;;;5070050;28;20044;-77
2021/12/01 11:05:47;;;;;;;6.28;0.93;;;9.80;99.90;;;;;;5062811;28;20044;-77
2021/12/01 11:08:26;;;;;;;10.00;1.70;;;10.30;99.90;;;;;;5052862;28;20028;-78
2021/12/01 11:10:56;;;;;;;9.25;1.48;;;10.70;99.90;;;;;;5068414;28;20040;-76
2021/12/01 11:13:24;;;;;;;9.43;1.73;;;10.50;99.90;;;;;;5070367;28;20093;-77
2021/12/01 11:16:01;;;;;;;10.63;1.40;;;10.10;99.90;;;;;;5069807;28;20055;-76
2021/12/01 11:18:29;;;;;;;11.30;1.70;;;9.90;99.90;;;;;;5069687;28;20043;-76
2021/12/01 11:21:00;;;;;;;7.13;1.45;;;9.60;99.90;;;;;;5070462;28;20044;-76
2021/12/01 11:23:31;;;;;;;11.35;1.75;;;9.40;99.90;;;;;;5070300;28;20039;-77
2021/12/01 11:26:11;;;;;;;12.63;1.77;;;9.20;99.90;;;;;;5070482;28;20051;-76
2021/12/01 11:28:43;;;;;;;12.73;1.75;;;9.20;99.90;;;;;;5070246;28;20040;-77
2021/12/01 11:31:22;;;;;;;12.50;1.75;;;9.20;99.90;;;;;;5069449;28;20037;-77
2021/12/01 11:33:49;;;;;;;8.95;1.60;;;9.20;99.90;;;;;;5069132;28;20029;-77
2021/12/01 11:36:20;;;;;;;13.65;2.65;;;9.10;99.90;;;;;;5052952;28;20484;-77
2021/12/01 11:38:53;;;;;;;12.50;2.28;;;9.30;99.90;;;;;;5101642;28;21113;-77
2021/12/01 11:41:19;;;;;;;12.38;2.42;;;9.40;99.90;;;;;;5069797;28;20123;-76
2021/12/01 11:43:46;;;;;;;20.48;2.72;;;9.30;99.90;;;;;;5069665;28;20040;-76
2021/12/01 11:46:11;;;;;;;13.68;2.60;;;9.30;99.90;;;;;;5052806;28;20048;-76
2021/12/01 11:48:42;;;;;;;14.07;2.45;;;9.20;99.90;;;;;;5070169;28;20528;-77
2021/12/01 11:51:15;;;;;;;24.02;2.92;;;9.10;99.90;;;;;;5067241;28;20041;-76
2021/12/01 11:53:45;;;;;;;14.40;3.30;;;8.90;99.90;;;;;;5053484;28;20516;-76
2021/12/01 11:56:29;;;;;;;16.63;2.45;;;8.80;99.90;;;;;;5069522;28;20428;-76
2021/12/01 11:59:04;;;;;;;22.83;2.40;;;8.70;99.90;;;;;;5036297;28;20075;-77
2021/12/01 12:01:30;;;;;;;14.85;2.60;;;8.60;99.90;;;;;;5070347;28;20044;-76
2021/12/01 12:04:01;;;;;;;17.83;3.07;;;8.50;99.90;;;;;;5073375;28;20055;-78
2021/12/01 12:06:31;;;;;;;14.20;2.17;;;8.50;99.90;;;;;;5056631;28;20041;-78
2021/12/01 12:09:05;;;;;;;16.20;2.65;;;8.50;99.90;;;;;;5068712;28;20036;-77
2021/12/01 12:11:44;;;;;;;20.70;2.55;;;8.60;99.90;;;;;;5057241;28;20044;-78
2021/12/01 12:14:14;;;;;;;28.30;3.33;;;8.60;99.90;;;;;;5073000;28;20108;-76
2021/12/01 12:16:59;;;;;;;20.65;2.25;;;8.50;99.90;;;;;;5073484;28;20465;-76
2021/12/01 12:19:46;;;;;;;11.43;2.20;;;8.50;99.90;;;;;;5070432;28;20115;-76
2021/12/01 12:22:14;;;;;;;15.55;2.70;;;8.60;99.90;;;;;;5070289;28;20096;-76
2021/12/01 12:24:50;;;;;;;14.48;3.42;;;8.60;99.90;;;;;;5072884;28;20055;-75
2021/12/01 12:27:42;;;;;;;16.77;2.53;;;9.00;99.90;;;;;;5072873;28;20488;-75
2021/12/01 12:30:36;;;;;;;15.00;2.60;;;9.00;99.90;;;;;;5071007;28;20040;-76
2021/12/01 12:33:24;;;;;;;14.65;2.50;;;8.90;99.90;;;;;;5064499;28;20037;-77
2021/12/01 12:35:52;;;;;;;10.20;1.83;;;9.10;99.90;;;;;;5071518;28;20507;-76
2021/12/01 12:38:18;;;;;;;18.00;3.03;;;9.10;99.90;;;;;;5056283;28;20047;-77
2021/12/01 12:40:45;;;;;;;14.50;1.58;;;9.00;99.90;;;;;;5040108;28;20048;-77
2021/12/01 12:43:23;;;;;;;9.45;1.80;;;8.90;99.90;;;;;;5056023;28;20041;-78
2021/12/01 12:46:03;;;;;;;10.55;1.80;;;8.90;99.90;;;;;;5072641;28;20032;-76
2021/12/01 12:48:34;;;;;;;7.20;1.55;;;8.80;99.90;;;;;;5070396;28;20519;-76
2021/12/01 12:51:21;;;;;;;8.43;1.50;;;8.60;99.90;;;;;;5072130;28;20101;-76
2021/12/01 12:54:06;;;;;;;4.40;1.08;;;8.60;99.90;;;;;;5071202;28;20119;-77
2021/12/01 12:56:54;;;;;;;14.38;1.92;;;8.50;99.90;;;;;;5068926;28;20056;-76
2021/12/01 12:59:32;;;;;;;7.93;1.50;;;8.40;99.90;;;;;;5055153;28;20036;-76
2021/12/01 13:02:10;;;;;;;9.18;1.90;;;8.30;99.90;;;;;;5072036;28;20074;-76
2021/12/01 13:04:48;;;;;;;9.55;1.63;;;8.10;99.90;;;;;;5070676;28;20601;-76
2021/12/01 13:07:32;;;;;;;16.95;1.90;;;8.00;99.90;;;;;;5069835;28;20040;-77